sensor_id;sensor_type;location;lat;lon;timestamp;pressure;altitude;pressure_sealevel;temperature;humidity
35910;BME280;22004;49.120;-0.200;2023-02-23T00:01:26;101282.09;;;9.02;71.09
35910;BME280;22004;49.120;-0.200;2023-02-23T00:03:56;101283.50;;;9.14;69.56
35910;BME280;22004;49.120;-0.200;2023-02-23T00:06:23;101290.72;;;9.14;70.11
35910;BME280;22004;49.120;-0.200;2023-02-23T00:08:49;101288.22;;;8.94;70.59
35910;BME280;22004;49.120;-0.200;2023-02-23T00:11:17;101285.31;;;9.05;71.50
35910;BME280;22004;49.120;-0.200;2023-02-23T00:13:45;101281.56;;;9.24;70.59
35910;BME280;22004;49.120;-0.200;2023-02-23T00:16:19;101293.19;;;9.07;70.95
35910;BME280;22004;49.120;-0.200;2023-02-23T00:18:50;101290.47;;;9.25;70.79
35910;BME280;22004;49.120;-0.200;2023-02-23T00:21:21;101291.59;;;8.96;70.09
35910;BME280;22004;49.120;-0.200;2023-02-23T00:24:11;101299.81;;;9.21;70.74
35910;BME280;22004;49.120;-0.200;2023-02-23T00:26:39;101288.13;;;9.04;70.20
35910;BME280;22004;49.120;-0.200;2023-02-23T00:29:10;101293.28;;;8.97;71.48
35910;BME280;22004;49.120;-0.200;2023-02-23T00:31:36;101290.06;;;9.20;70.77
35910;BME280;22004;49.120;-0.200;2023-02-23T00:34:03;101294.84;;;9.08;71.20
35910;BME280;22004;49.120;-0.200;2023-02-23T00:36:33;101297.31;;;9.27;70.83
35910;BME280;22004;49.120;-0.200;2023-02-23T00:39:01;101294.19;;;9.06;70.89
35910;BME280;22004;49.120;-0.200;2023-02-23T00:41:27;101293.25;;;9.15;70.89
35910;BME280;22004;49.120;-0.200;2023-02-23T00:43:55;101283.00;;;9.11;71.09
35910;BME280;22004;49.120;-0.200;2023-02-23T00:46:22;101292.56;;;9.13;70.91
35910;BME280;22004;49.120;-0.200;2023-02-23T00:48:49;101294.75;;;9.18;70.73
35910;BME280;22004;49.120;-0.200;2023-02-23T00:51:16;101282.72;;;9.22;70.75
35910;BME280;22004;49.120;-0.200;2023-02-23T00:53:43;101290.94;;;9.20;70.63
35910;BME280;22004;49.120;-0.200;2023-02-23T00:56:11;101285.56;;;9.20;70.52
35910;BME280;22004;49.120;-0.200;2023-02-23T00:58:37;101292.38;;;9.15;70.91
35910;BME280;22004;49.120;-0.200;2023-02-23T01:01:07;101296.59;;;9.17;70.89
35910;BME280;22004;49.120;-0.200;2023-02-23T01:03:34;101292.91;;;9.18;69.93
35910;BME280;22004;49.120;-0.200;2023-02-23T01:06:01;101286.34;;;9.13;70.67
35910;BME280;22004;49.120;-0.200;2023-02-23T01:08:37;101293.72;;;9.11;70.29
35910;BME280;22004;49.120;-0.200;2023-02-23T01:11:15;101292.00;;;9.10;70.27
35910;BME280;22004;49.120;-0.200;2023-02-23T01:13:43;101290.47;;;9.25;70.40
35910;BME280;22004;49.120;-0.200;2023-02-23T01:16:14;101287.72;;;9.17;70.32
35910;BME280;22004;49.120;-0.200;2023-02-23T01:18:41;101285.56;;;9.20;69.85
35910;BME280;22004;49.120;-0.200;2023-02-23T01:21:17;101283.25;;;9.25;70.22
35910;BME280;22004;49.120;-0.200;2023-02-23T01:23:43;101284.69;;;9.12;70.20
35910;BME280;22004;49.120;-0.200;2023-02-23T01:26:22;101286.41;;;9.21;69.68
35910;BME280;22004;49.120;-0.200;2023-02-23T01:28:54;101287.53;;;9.10;69.96
35910;BME280;22004;49.120;-0.200;2023-02-23T01:31:21;101283.31;;;9.07;70.04
35910;BME280;22004;49.120;-0.200;2023-02-23T01:33:52;101281.94;;;9.03;70.31
35910;BME280;22004;49.120;-0.200;2023-02-23T01:36:17;101283.97;;;9.10;69.94
35910;BME280;22004;49.120;-0.200;2023-02-23T01:38:43;101281.91;;;9.21;69.68
35910;BME280;22004;49.120;-0.200;2023-02-23T01:41:08;101276.16;;;9.16;69.83
35910;BME280;22004;49.120;-0.200;2023-02-23T01:43:35;101276.84;;;9.18;69.71
35910;BME280;22004;49.120;-0.200;2023-02-23T01:46:19;101265.81;;;9.21;69.71
35910;BME280;22004;49.120;-0.200;2023-02-23T01:48:44;101256.59;;;9.24;69.60
35910;BME280;22004;49.120;-0.200;2023-02-23T01:51:18;101264.50;;;9.25;70.14
35910;BME280;22004;49.120;-0.200;2023-02-23T01:53:54;101263.25;;;9.12;69.80
35910;BME280;22004;49.120;-0.200;2023-02-23T01:56:25;101256.59;;;9.16;69.93
35910;BME280;22004;49.120;-0.200;2023-02-23T01:58:54;101260.59;;;9.20;69.63
35910;BME280;22004;49.120;-0.200;2023-02-23T02:01:22;101255.75;;;9.15;69.84
35910;BME280;22004;49.120;-0.200;2023-02-23T02:03:52;101261.25;;;9.14;69.69
35910;BME280;22004;49.120;-0.200;2023-02-23T02:06:21;101264.94;;;9.13;69.45
35910;BME280;22004;49.120;-0.200;2023-02-23T02:08:51;101267.97;;;9.18;69.42
35910;BME280;22004;49.120;-0.200;2023-02-23T02:11:20;101271.44;;;9.10;69.54
35910;BME280;22004;49.120;-0.200;2023-02-23T02:13:58;101270.69;;;9.00;69.52
35910;BME280;22004;49.120;-0.200;2023-02-23T02:19:26;101274.91;;;9.02;69.39
35910;BME280;22004;49.120;-0.200;2023-02-23T02:22:32;101284.69;;;9.12;69.49
35910;BME280;22004;49.120;-0.200;2023-02-23T02:27:49;101283.19;;;8.65;70.72
35910;BME280;22004;49.120;-0.200;2023-02-23T02:33:19;101271.97;;;9.14;69.21
35910;BME280;22004;49.120;-0.200;2023-02-23T02:39:27;101270.69;;;9.00;69.67
35910;BME280;22004;49.120;-0.200;2023-02-23T02:47:44;101251.56;;;8.95;69.28
35910;BME280;22004;49.120;-0.200;2023-02-23T02:50:25;101249.97;;;9.02;69.41
35910;BME280;22004;49.120;-0.200;2023-02-23T02:53:00;101237.03;;;8.97;69.51
35910;BME280;22004;49.120;-0.200;2023-02-23T02:55:31;101234.16;;;8.91;69.33
35910;BME280;22004;49.120;-0.200;2023-02-23T02:57:59;101231.31;;;8.92;69.79
35910;BME280;22004;49.120;-0.200;2023-02-23T03:00:35;101234.66;;;8.94;69.03
35910;BME280;22004;49.120;-0.200;2023-02-23T03:06:33;101243.88;;;8.92;69.02
35910;BME280;22004;49.120;-0.200;2023-02-23T03:09:49;101244.88;;;8.91;69.32
35910;BME280;22004;49.120;-0.200;2023-02-23T03:12:42;101242.34;;;8.89;68.91
35910;BME280;22004;49.120;-0.200;2023-02-23T03:24:50;101248.19;;;9.11;68.72
35910;BME280;22004;49.120;-0.200;2023-02-23T03:27:44;101250.88;;;9.19;68.51
35910;BME280;22004;49.120;-0.200;2023-02-23T03:30:38;101251.25;;;9.24;68.33
35910;BME280;22004;49.120;-0.200;2023-02-23T03:33:57;101250.88;;;9.11;68.99
35910;BME280;22004;49.120;-0.200;2023-02-23T03:36:47;101256.69;;;9.06;69.06
35910;BME280;22004;49.120;-0.200;2023-02-23T03:39:36;101262.34;;;9.03;68.91
35910;BME280;22004;49.120;-0.200;2023-02-23T03:42:26;101263.00;;;8.97;69.06
35910;BME280;22004;49.120;-0.200;2023-02-23T03:45:14;101262.91;;;8.89;68.86
35910;BME280;22004;49.120;-0.200;2023-02-23T03:48:02;101277.50;;;8.94;68.85
35910;BME280;22004;49.120;-0.200;2023-02-23T03:50:53;101272.88;;;8.78;68.93
35910;BME280;22004;49.120;-0.200;2023-02-23T03:53:42;101268.84;;;8.74;69.22
35910;BME280;22004;49.120;-0.200;2023-02-23T03:56:32;101280.75;;;8.80;69.50
35910;BME280;22004;49.120;-0.200;2023-02-23T03:59:19;101273.53;;;8.72;69.13
35910;BME280;22004;49.120;-0.200;2023-02-23T04:02:07;101270.75;;;8.64;69.55
35910;BME280;22004;49.120;-0.200;2023-02-23T04:04:54;101284.53;;;8.69;69.03
35910;BME280;22004;49.120;-0.200;2023-02-23T04:07:42;101274.28;;;8.65;69.52
35910;BME280;22004;49.120;-0.200;2023-02-23T04:10:29;101271.94;;;8.62;69.23
35910;BME280;22004;49.120;-0.200;2023-02-23T04:13:18;101271.19;;;8.51;69.49
35910;BME280;22004;49.120;-0.200;2023-02-23T04:15:55;101273.53;;;8.54;69.12
35910;BME280;22004;49.120;-0.200;2023-02-23T04:18:24;101270.00;;;8.54;69.52
35910;BME280;22004;49.120;-0.200;2023-02-23T04:20:50;101277.16;;;8.45;69.73
35910;BME280;22004;49.120;-0.200;2023-02-23T04:23:16;101280.28;;;8.41;69.33
35910;BME280;22004;49.120;-0.200;2023-02-23T04:25:42;101275.22;;;8.38;69.61
35910;BME280;22004;49.120;-0.200;2023-02-23T04:28:07;101266.22;;;8.39;69.43
35910;BME280;22004;49.120;-0.200;2023-02-23T04:30:33;101272.94;;;8.43;69.17
35910;BME280;22004;49.120;-0.200;2023-02-23T04:32:58;101276.13;;;8.28;69.13
35910;BME280;22004;49.120;-0.200;2023-02-23T04:35:24;101273.66;;;8.35;69.38
35910;BME280;22004;49.120;-0.200;2023-02-23T04:37:51;101260.38;;;8.25;69.53
35910;BME280;22004;49.120;-0.200;2023-02-23T04:40:17;101264.56;;;8.28;69.33
35910;BME280;22004;49.120;-0.200;2023-02-23T04:42:42;101263.34;;;8.22;68.97
35910;BME280;22004;49.120;-0.200;2023-02-23T04:45:09;101263.97;;;8.34;69.49
35910;BME280;22004;49.120;-0.200;2023-02-23T04:47:35;101262.44;;;8.49;69.31
35910;BME280;22004;49.120;-0.200;2023-02-23T04:50:00;101272.63;;;8.46;69.44
35910;BME280;22004;49.120;-0.200;2023-02-23T04:52:26;101274.16;;;8.31;69.14
35910;BME280;22004;49.120;-0.200;2023-02-23T04:54:51;101269.72;;;8.39;69.09
35910;BME280;22004;49.120;-0.200;2023-02-23T04:57:16;101267.03;;;8.39;68.52
35910;BME280;22004;49.120;-0.200;2023-02-23T04:59:42;101267.09;;;8.29;69.51
35910;BME280;22004;49.120;-0.200;2023-02-23T05:02:07;101266.88;;;8.23;69.33
35910;BME280;22004;49.120;-0.200;2023-02-23T05:04:33;101268.94;;;8.11;69.26
35910;BME280;22004;49.120;-0.200;2023-02-23T05:07:01;101277.63;;;8.13;68.86
35910;BME280;22004;49.120;-0.200;2023-02-23T05:09:28;101274.13;;;8.13;69.10
35910;BME280;22004;49.120;-0.200;2023-02-23T05:11:53;101272.22;;;8.23;69.09
35910;BME280;22004;49.120;-0.200;2023-02-23T05:14:19;101276.63;;;8.14;69.47
35910;BME280;22004;49.120;-0.200;2023-02-23T05:16:44;101281.38;;;8.20;69.02
35910;BME280;22004;49.120;-0.200;2023-02-23T05:19:10;101275.97;;;8.12;68.98
35910;BME280;22004;49.120;-0.200;2023-02-23T05:21:35;101273.13;;;8.14;68.74
35910;BME280;22004;49.120;-0.200;2023-02-23T05:24:01;101269.38;;;8.24;68.85
35910;BME280;22004;49.120;-0.200;2023-02-23T05:26:26;101278.47;;;8.14;68.89
35910;BME280;22004;49.120;-0.200;2023-02-23T05:28:52;101275.56;;;8.07;68.44
35910;BME280;22004;49.120;-0.200;2023-02-23T05:31:17;101278.69;;;8.20;68.43
35910;BME280;22004;49.120;-0.200;2023-02-23T05:33:43;101265.19;;;8.22;68.75
35910;BME280;22004;49.120;-0.200;2023-02-23T05:36:17;101262.13;;;8.17;68.34
35910;BME280;22004;49.120;-0.200;2023-02-23T05:38:44;101266.66;;;8.16;68.10
35910;BME280;22004;49.120;-0.200;2023-02-23T05:41:15;101259.13;;;8.20;68.74
35910;BME280;22004;49.120;-0.200;2023-02-23T05:43:41;101271.00;;;8.17;68.26
35910;BME280;22004;49.120;-0.200;2023-02-23T05:46:08;101273.63;;;7.99;68.19
35910;BME280;22004;49.120;-0.200;2023-02-23T05:48:34;101278.25;;;8.07;68.20
35910;BME280;22004;49.120;-0.200;2023-02-23T05:51:01;101278.47;;;8.14;68.19
35910;BME280;22004;49.120;-0.200;2023-02-23T05:53:26;101281.47;;;8.11;67.83
35910;BME280;22004;49.120;-0.200;2023-02-23T05:55:52;101285.72;;;8.03;67.64
35910;BME280;22004;49.120;-0.200;2023-02-23T05:58:17;101291.00;;;8.13;67.71
35910;BME280;22004;49.120;-0.200;2023-02-23T06:00:43;101285.28;;;8.08;67.96
35910;BME280;22004;49.120;-0.200;2023-02-23T06:03:08;101285.75;;;8.21;67.79
35910;BME280;22004;49.120;-0.200;2023-02-23T06:05:33;101288.56;;;8.20;67.60
35910;BME280;22004;49.120;-0.200;2023-02-23T06:07:59;101285.44;;;8.07;67.67
35910;BME280;22004;49.120;-0.200;2023-02-23T06:10:24;101279.63;;;8.11;67.67
35910;BME280;22004;49.120;-0.200;2023-02-23T06:12:49;101276.25;;;8.09;67.49
35910;BME280;22004;49.120;-0.200;2023-02-23T06:15:14;101281.69;;;8.17;67.45
35910;BME280;22004;49.120;-0.200;2023-02-23T06:17:40;101284.28;;;8.09;67.51
35910;BME280;22004;49.120;-0.200;2023-02-23T06:20:05;101296.13;;;8.24;67.50
35910;BME280;22004;49.120;-0.200;2023-02-23T06:22:31;101295.44;;;8.22;66.97
35910;BME280;22004;49.120;-0.200;2023-02-23T06:24:57;101296.53;;;8.12;67.22
35910;BME280;22004;49.120;-0.200;2023-02-23T06:27:22;101301.63;;;8.23;66.76
35910;BME280;22004;49.120;-0.200;2023-02-23T06:29:47;101305.84;;;8.25;66.69
35910;BME280;22004;49.120;-0.200;2023-02-23T06:32:13;101306.22;;;8.13;66.92
35910;BME280;22004;49.120;-0.200;2023-02-23T06:34:38;101309.94;;;8.02;67.00
35910;BME280;22004;49.120;-0.200;2023-02-23T06:37:04;101298.69;;;7.98;67.12
35910;BME280;22004;49.120;-0.200;2023-02-23T06:39:30;101297.41;;;8.02;67.05
35910;BME280;22004;49.120;-0.200;2023-02-23T06:41:55;101306.28;;;8.03;66.51
35910;BME280;22004;49.120;-0.200;2023-02-23T06:44:21;101305.38;;;8.12;66.79
35910;BME280;22004;49.120;-0.200;2023-02-23T06:46:46;101302.31;;;8.07;66.99
35910;BME280;22004;49.120;-0.200;2023-02-23T06:49:12;101296.13;;;8.07;65.95
35910;BME280;22004;49.120;-0.200;2023-02-23T06:51:37;101289.72;;;8.17;66.99
35910;BME280;22004;49.120;-0.200;2023-02-23T06:54:02;101286.50;;;8.14;66.94
35910;BME280;22004;49.120;-0.200;2023-02-23T06:56:28;101290.63;;;8.08;66.48
35910;BME280;22004;49.120;-0.200;2023-02-23T06:58:53;101294.84;;;8.11;66.91
35910;BME280;22004;49.120;-0.200;2023-02-23T07:01:18;101290.22;;;8.03;66.73
35910;BME280;22004;49.120;-0.200;2023-02-23T07:03:45;101281.91;;;8.06;66.51
35910;BME280;22004;49.120;-0.200;2023-02-23T07:06:10;101283.75;;;8.23;65.80
35910;BME280;22004;49.120;-0.200;2023-02-23T07:08:36;101273.56;;;8.09;66.34
35910;BME280;22004;49.120;-0.200;2023-02-23T07:11:09;101281.31;;;8.12;66.56
35910;BME280;22004;49.120;-0.200;2023-02-23T07:13:35;101294.16;;;8.26;66.00
35910;BME280;22004;49.120;-0.200;2023-02-23T07:16:01;101304.59;;;8.20;65.98
35910;BME280;22004;49.120;-0.200;2023-02-23T07:18:26;101312.13;;;8.34;65.89
35910;BME280;22004;49.120;-0.200;2023-02-23T07:20:52;101323.59;;;8.26;65.93
35910;BME280;22004;49.120;-0.200;2023-02-23T07:23:17;101325.88;;;8.21;66.17
35910;BME280;22004;49.120;-0.200;2023-02-23T07:25:42;101334.28;;;8.26;66.13
35910;BME280;22004;49.120;-0.200;2023-02-23T07:28:09;101345.06;;;8.35;65.64
35910;BME280;22004;49.120;-0.200;2023-02-23T07:30:34;101347.69;;;8.44;65.78
35910;BME280;22004;49.120;-0.200;2023-02-23T07:32:59;101350.16;;;8.38;65.52
35910;BME280;22004;49.120;-0.200;2023-02-23T07:35:25;101343.38;;;8.34;66.02
35910;BME280;22004;49.120;-0.200;2023-02-23T07:37:50;101341.50;;;8.44;65.88
35910;BME280;22004;49.120;-0.200;2023-02-23T07:40:16;101344.50;;;8.41;65.49
35910;BME280;22004;49.120;-0.200;2023-02-23T07:42:41;101345.78;;;8.09;66.71
35910;BME280;22004;49.120;-0.200;2023-02-23T07:45:08;101357.94;;;8.49;65.27
35910;BME280;22004;49.120;-0.200;2023-02-23T07:47:33;101361.16;;;8.52;65.49
35910;BME280;22004;49.120;-0.200;2023-02-23T07:49:59;101359.34;;;8.53;64.85
35910;BME280;22004;49.120;-0.200;2023-02-23T07:52:27;101360.81;;;8.65;65.07
35910;BME280;22004;49.120;-0.200;2023-02-23T07:54:52;101364.00;;;8.69;64.56
35910;BME280;22004;49.120;-0.200;2023-02-23T07:57:18;101350.03;;;8.29;63.33
35910;BME280;22004;49.120;-0.200;2023-02-23T07:59:45;101356.22;;;7.38;66.81
35910;BME280;22004;49.120;-0.200;2023-02-23T08:02:12;101354.78;;;8.36;66.02
35910;BME280;22004;49.120;-0.200;2023-02-23T08:04:38;101351.81;;;8.74;64.84
35910;BME280;22004;49.120;-0.200;2023-02-23T08:07:05;101354.81;;;8.53;65.41
35910;BME280;22004;49.120;-0.200;2023-02-23T08:09:30;101362.38;;;8.58;65.37
35910;BME280;22004;49.120;-0.200;2023-02-23T08:11:57;101359.41;;;8.61;65.39
35910;BME280;22004;49.120;-0.200;2023-02-23T08:14:22;101354.19;;;8.60;65.33
35910;BME280;22004;49.120;-0.200;2023-02-23T08:16:48;101358.25;;;8.82;64.98
35910;BME280;22004;49.120;-0.200;2023-02-23T08:19:14;101359.84;;;8.74;65.00
35910;BME280;22004;49.120;-0.200;2023-02-23T08:21:39;101362.84;;;8.89;64.82
35910;BME280;22004;49.120;-0.200;2023-02-23T08:24:07;101364.59;;;8.98;64.73
35910;BME280;22004;49.120;-0.200;2023-02-23T08:26:34;101369.78;;;9.00;64.59
35910;BME280;22004;49.120;-0.200;2023-02-23T08:29:00;101374.53;;;9.06;64.61
35910;BME280;22004;49.120;-0.200;2023-02-23T08:31:25;101368.91;;;8.91;64.74
35910;BME280;22004;49.120;-0.200;2023-02-23T08:33:52;101375.34;;;8.80;65.08
35910;BME280;22004;49.120;-0.200;2023-02-23T08:36:17;101375.34;;;8.80;65.41
35910;BME280;22004;49.120;-0.200;2023-02-23T08:38:44;101377.25;;;8.70;65.68
35910;BME280;22004;49.120;-0.200;2023-02-23T08:41:10;101370.66;;;8.83;65.22
35910;BME280;22004;49.120;-0.200;2023-02-23T08:43:35;101373.63;;;8.79;65.57
35910;BME280;22004;49.120;-0.200;2023-02-23T08:46:03;101374.09;;;8.75;65.59
35910;BME280;22004;49.120;-0.200;2023-02-23T08:48:29;101366.22;;;8.73;65.66
35910;BME280;22004;49.120;-0.200;2023-02-23T08:50:56;101368.28;;;8.97;65.45
35910;BME280;22004;49.120;-0.200;2023-02-23T08:53:21;101360.78;;;8.83;65.44
35910;BME280;22004;49.120;-0.200;2023-02-23T08:55:59;101363.63;;;8.82;65.54
35910;BME280;22004;49.120;-0.200;2023-02-23T08:58:26;101350.59;;;8.69;66.39
35910;BME280;22004;49.120;-0.200;2023-02-23T09:00:52;101357.19;;;8.57;63.73
35910;BME280;22004;49.120;-0.200;2023-02-23T09:03:19;101369.13;;;9.24;64.69
35910;BME280;22004;49.120;-0.200;2023-02-23T09:05:44;101364.47;;;9.52;63.69
35910;BME280;22004;49.120;-0.200;2023-02-23T09:08:11;101369.56;;;9.63;63.25
35910;BME280;22004;49.120;-0.200;2023-02-23T09:10:37;101367.25;;;9.68;63.19
35910;BME280;22004;49.120;-0.200;2023-02-23T09:13:03;101363.34;;;9.63;63.54
35910;BME280;22004;49.120;-0.200;2023-02-23T09:15:28;101370.84;;;9.85;63.15
35910;BME280;22004;49.120;-0.200;2023-02-23T09:17:59;101382.38;;;9.77;63.23
35910;BME280;22004;49.120;-0.200;2023-02-23T09:20:24;101383.31;;;9.68;63.92
35910;BME280;22004;49.120;-0.200;2023-02-23T09:22:51;101384.06;;;9.52;63.65
35910;BME280;22004;49.120;-0.200;2023-02-23T09:25:18;101375.88;;;9.54;64.18
35910;BME280;22004;49.120;-0.200;2023-02-23T09:27:47;101374.38;;;9.59;64.17
35910;BME280;22004;49.120;-0.200;2023-02-23T09:30:13;101385.34;;;9.66;63.93
35910;BME280;22004;49.120;-0.200;2023-02-23T09:32:52;101395.09;;;9.75;63.45
35910;BME280;22004;49.120;-0.200;2023-02-23T09:35:19;101395.81;;;9.59;63.88
35910;BME280;22004;49.120;-0.200;2023-02-23T09:37:54;101393.66;;;9.55;64.63
35910;BME280;22004;49.120;-0.200;2023-02-23T09:40:26;101392.91;;;9.71;63.73
35910;BME280;22004;49.120;-0.200;2023-02-23T09:45:52;101401.84;;;9.53;64.99
35910;BME280;22004;49.120;-0.200;2023-02-23T09:48:25;101407.34;;;9.52;65.40
35910;BME280;22004;49.120;-0.200;2023-02-23T09:50:54;101398.03;;;9.64;65.21
35910;BME280;22004;49.120;-0.200;2023-02-23T09:53:26;101399.50;;;9.32;65.87
35910;BME280;22004;49.120;-0.200;2023-02-23T09:55:55;101394.09;;;9.24;66.24
35910;BME280;22004;49.120;-0.200;2023-02-23T09:58:27;101398.41;;;9.43;65.79
35910;BME280;22004;49.120;-0.200;2023-02-23T10:06:24;101395.34;;;9.64;65.43
35910;BME280;22004;49.120;-0.200;2023-02-23T10:12:08;101404.31;;;9.03;67.02
35910;BME280;22004;49.120;-0.200;2023-02-23T10:14:22;101410.56;;;9.81;65.04
35910;BME280;22004;49.120;-0.200;2023-02-23T10:17:08;101411.22;;;9.83;64.91
35910;BME280;22004;49.120;-0.200;2023-02-23T10:19:50;101416.47;;;9.93;64.67
35910;BME280;22004;49.120;-0.200;2023-02-23T10:22:18;101406.66;;;9.76;65.29
35910;BME280;22004;49.120;-0.200;2023-02-23T10:24:54;101411.00;;;10.03;64.62
35910;BME280;22004;49.120;-0.200;2023-02-23T10:27:24;101421.13;;;9.13;66.80
35910;BME280;22004;49.120;-0.200;2023-02-23T10:29:56;101419.09;;;10.53;63.37
35910;BME280;22004;49.120;-0.200;2023-02-23T10:32:42;101422.34;;;10.81;62.23
35910;BME280;22004;49.120;-0.200;2023-02-23T10:35:13;101420.63;;;10.56;63.91
35910;BME280;22004;49.120;-0.200;2023-02-23T10:37:38;101423.19;;;10.82;62.66
35910;BME280;22004;49.120;-0.200;2023-02-23T10:40:04;101419.34;;;10.84;62.83
35910;BME280;22004;49.120;-0.200;2023-02-23T10:42:31;101419.84;;;11.12;61.70
35910;BME280;22004;49.120;-0.200;2023-02-23T10:44:57;101415.25;;;10.56;63.58
35910;BME280;22004;49.120;-0.200;2023-02-23T10:47:26;101413.09;;;10.76;63.09
35910;BME280;22004;49.120;-0.200;2023-02-23T10:49:54;101412.94;;;10.69;63.40
35910;BME280;22004;49.120;-0.200;2023-02-23T10:54:46;101411.94;;;9.86;65.89
35910;BME280;22004;49.120;-0.200;2023-02-23T10:57:24;101409.75;;;10.98;62.93
35910;BME280;22004;49.120;-0.200;2023-02-23T11:02:31;101415.56;;;10.53;64.05
35910;BME280;22004;49.120;-0.200;2023-02-23T11:04:59;101410.69;;;10.48;64.54
35910;BME280;22004;49.120;-0.200;2023-02-23T11:07:28;101391.31;;;10.95;64.16
35910;BME280;22004;49.120;-0.200;2023-02-23T11:09:56;101393.13;;;10.20;67.00
35910;BME280;22004;49.120;-0.200;2023-02-23T11:12:37;101398.22;;;9.97;67.71
35910;BME280;22004;49.120;-0.200;2023-02-23T11:17:58;101397.53;;;10.29;67.03
35910;BME280;22004;49.120;-0.200;2023-02-23T11:20:30;101392.59;;;10.16;67.15
35910;BME280;22004;49.120;-0.200;2023-02-23T11:23:00;101390.41;;;10.62;64.89
35910;BME280;22004;49.120;-0.200;2023-02-23T11:25:30;101399.69;;;11.00;63.56
35910;BME280;22004;49.120;-0.200;2023-02-23T11:27:56;101391.59;;;10.68;65.55
35910;BME280;22004;49.120;-0.200;2023-02-23T11:30:27;101394.09;;;10.53;65.42
35910;BME280;22004;49.120;-0.200;2023-02-23T11:32:56;101391.06;;;10.05;67.76
35910;BME280;22004;49.120;-0.200;2023-02-23T11:37:48;101412.25;;;10.67;65.03
35910;BME280;22004;49.120;-0.200;2023-02-23T11:40:31;101403.75;;;11.04;63.48
35910;BME280;22004;49.120;-0.200;2023-02-23T11:43:12;101419.31;;;10.93;64.36
35910;BME280;22004;49.120;-0.200;2023-02-23T11:45:50;101417.94;;;10.56;68.06
35910;BME280;22004;49.120;-0.200;2023-02-23T11:48:26;101422.09;;;10.42;66.34
35910;BME280;22004;49.120;-0.200;2023-02-23T11:50:52;101424.06;;;11.15;64.75
35910;BME280;22004;49.120;-0.200;2023-02-23T11:53:43;101430.09;;;10.26;67.15
35910;BME280;22004;49.120;-0.200;2023-02-23T11:56:07;101418.94;;;10.63;66.68
35910;BME280;22004;49.120;-0.200;2023-02-23T12:01:17;101420.97;;;10.61;66.24
35910;BME280;22004;49.120;-0.200;2023-02-23T12:03:49;101415.75;;;10.68;66.18
35910;BME280;22004;49.120;-0.200;2023-02-23T12:06:30;101415.38;;;10.46;66.83
35910;BME280;22004;49.120;-0.200;2023-02-23T12:11:40;101410.88;;;10.63;66.55
35910;BME280;22004;49.120;-0.200;2023-02-23T12:14:19;101401.06;;;11.04;65.34
35910;BME280;22004;49.120;-0.200;2023-02-23T12:16:55;101404.78;;;10.37;67.36
35910;BME280;22004;49.120;-0.200;2023-02-23T12:19:29;101406.59;;;9.94;68.58
35910;BME280;22004;49.120;-0.200;2023-02-23T12:35:29;101369.28;;;10.75;66.06
35910;BME280;22004;49.120;-0.200;2023-02-23T12:38:21;101370.22;;;10.25;66.90
35910;BME280;22004;49.120;-0.200;2023-02-23T12:41:29;101359.59;;;9.81;69.80
35910;BME280;22004;49.120;-0.200;2023-02-23T12:44:00;101351.44;;;9.99;68.44
35910;BME280;22004;49.120;-0.200;2023-02-23T12:46:34;101350.50;;;9.74;69.06
35910;BME280;22004;49.120;-0.200;2023-02-23T12:50:24;101358.75;;;10.15;68.20
35910;BME280;22004;49.120;-0.200;2023-02-23T12:52:24;101357.66;;;10.42;67.92
35910;BME280;22004;49.120;-0.200;2023-02-23T12:54:51;101358.50;;;10.43;67.34
35910;BME280;22004;49.120;-0.200;2023-02-23T13:00:55;101350.53;;;10.17;68.26
35910;BME280;22004;49.120;-0.200;2023-02-23T13:03:41;101342.81;;;10.22;67.06
35910;BME280;22004;49.120;-0.200;2023-02-23T13:12:25;101329.28;;;10.31;66.82
35910;BME280;22004;49.120;-0.200;2023-02-23T13:20:54;101337.44;;;10.22;67.99
35910;BME280;22004;49.120;-0.200;2023-02-23T13:28:56;101342.66;;;10.23;68.41
35910;BME280;22004;49.120;-0.200;2023-02-23T13:31:25;101337.44;;;10.22;68.12
35910;BME280;22004;49.120;-0.200;2023-02-23T13:33:54;101335.34;;;10.42;67.21
35910;BME280;22004;49.120;-0.200;2023-02-23T13:36:21;101335.38;;;10.07;68.83
35910;BME280;22004;49.120;-0.200;2023-02-23T13:45:19;101330.03;;;10.07;68.75
35910;BME280;22004;49.120;-0.200;2023-02-23T13:50:50;101321.81;;;10.09;69.31
35910;BME280;22004;49.120;-0.200;2023-02-23T13:56:17;101333.75;;;10.15;69.54
35910;BME280;22004;49.120;-0.200;2023-02-23T13:58:50;101330.56;;;10.19;69.34
35910;BME280;22004;49.120;-0.200;2023-02-23T14:01:20;101341.03;;;10.30;68.31
35910;BME280;22004;49.120;-0.200;2023-02-23T14:03:58;101329.78;;;10.27;68.87
35910;BME280;22004;49.120;-0.200;2023-02-23T14:06:27;101323.00;;;10.06;70.19
35910;BME280;22004;49.120;-0.200;2023-02-23T14:08:59;101321.00;;;10.17;69.49
35910;BME280;22004;49.120;-0.200;2023-02-23T14:14:17;101319.22;;;10.33;68.86
35910;BME280;22004;49.120;-0.200;2023-02-23T14:22:25;101327.97;;;10.35;69.63
35910;BME280;22004;49.120;-0.200;2023-02-23T14:28:00;101320.72;;;10.28;69.24
35910;BME280;22004;49.120;-0.200;2023-02-23T14:30:28;101322.63;;;10.68;68.16
35910;BME280;22004;49.120;-0.200;2023-02-23T14:32:54;101317.13;;;10.19;70.04
35910;BME280;22004;49.120;-0.200;2023-02-23T14:38:02;101317.22;;;10.35;69.34
35910;BME280;22004;49.120;-0.200;2023-02-23T14:40:33;101321.06;;;10.25;69.74
35910;BME280;22004;49.120;-0.200;2023-02-23T14:43:01;101318.06;;;9.94;71.08
35910;BME280;22004;49.120;-0.200;2023-02-23T14:45:36;101333.06;;;10.13;70.39
35910;BME280;22004;49.120;-0.200;2023-02-23T14:48:10;101326.28;;;10.43;68.84
35910;BME280;22004;49.120;-0.200;2023-02-23T14:50:41;101330.91;;;10.16;70.56
35910;BME280;22004;49.120;-0.200;2023-02-23T14:53:19;101335.25;;;10.17;70.31
35910;BME280;22004;49.120;-0.200;2023-02-23T14:55:46;101327.25;;;10.33;69.14
35910;BME280;22004;49.120;-0.200;2023-02-23T14:58:25;101317.31;;;10.09;71.35
35910;BME280;22004;49.120;-0.200;2023-02-23T15:00:50;101312.44;;;10.13;70.52
35910;BME280;22004;49.120;-0.200;2023-02-23T15:03:16;101311.72;;;10.03;70.74
35910;BME280;22004;49.120;-0.200;2023-02-23T15:06:00;101314.50;;;10.27;70.14